SUT8642 CYZF-CYOA
Flight info
| Callsign | SUT8642 |
|---|---|
| Flight time | 0h 39m |
| Altitude | 23000 |
| Route | UKONA |
| Aircraft | RJ1H/M-SDFGIRWY/LB1 |
Departure
| Time | 2026-05-03 23:12 |
|---|---|
| Airport | Yellowknife International Airport (CYZF) |
Arrival
| Time | 2026-05-03 23:52 |
|---|---|
| Airport | Ekati Airport (CYOA) |
| Time | Latitude | Longitude | Altitude | Speed | Heading |
|---|---|---|---|---|---|
| 2026-05-03 22:35 | 62.47083 | -114.43871 | 684 ft | 0 kts | 85° |
| 2026-05-03 23:00 | 62.47083 | -114.43877 | 680 ft | 0 kts | 85° |
| 2026-05-03 23:01 | 62.47082 | -114.43880 | 680 ft | 0 kts | 85° |
| 2026-05-03 23:01 | 62.47081 | -114.43912 | 683 ft | 3 kts | 85° |
| 2026-05-03 23:01 | 62.47080 | -114.43952 | 681 ft | 3 kts | 85° |
| 2026-05-03 23:01 | 62.47082 | -114.43992 | 678 ft | 3 kts | 121° |
| 2026-05-03 23:02 | 62.47096 | -114.44016 | 678 ft | 3 kts | 166° |
| 2026-05-03 23:02 | 62.47099 | -114.44018 | 679 ft | 0 kts | 165° |
| 2026-05-03 23:06 | 62.47091 | -114.44014 | 679 ft | 2 kts | 169° |
| 2026-05-03 23:06 | 62.47065 | -114.44009 | 683 ft | 5 kts | 175° |
| 2026-05-03 23:07 | 62.47020 | -114.44001 | 682 ft | 8 kts | 175° |
| 2026-05-03 23:07 | 62.46968 | -114.44050 | 683 ft | 10 kts | 231° |
| 2026-05-03 23:07 | 62.46933 | -114.44164 | 684 ft | 10 kts | 237° |
| 2026-05-03 23:07 | 62.46891 | -114.44290 | 685 ft | 12 kts | 225° |
| 2026-05-03 23:08 | 62.46798 | -114.44338 | 684 ft | 16 kts | 173° |
| 2026-05-03 23:08 | 62.46677 | -114.44317 | 682 ft | 19 kts | 176° |
| 2026-05-03 23:08 | 62.46534 | -114.44297 | 681 ft | 22 kts | 176° |
| 2026-05-03 23:08 | 62.46370 | -114.44273 | 683 ft | 25 kts | 176° |
| 2026-05-03 23:09 | 62.46186 | -114.44248 | 683 ft | 27 kts | 176° |
| 2026-05-03 23:09 | 62.45987 | -114.44220 | 683 ft | 29 kts | 176° |
| 2026-05-03 23:09 | 62.45774 | -114.44190 | 685 ft | 32 kts | 176° |
| 2026-05-03 23:09 | 62.45545 | -114.44153 | 684 ft | 33 kts | 175° |
| 2026-05-03 23:10 | 62.45365 | -114.44101 | 684 ft | 14 kts | 149° |
| 2026-05-03 23:10 | 62.45307 | -114.44026 | 684 ft | 7 kts | 198° |
| 2026-05-03 23:10 | 62.45310 | -114.44090 | 684 ft | 6 kts | 356° |
| 2026-05-03 23:10 | 62.45349 | -114.44091 | 680 ft | 0 kts | 355° |
| 2026-05-03 23:11 | 62.45350 | -114.44091 | 679 ft | 0 kts | 355° |
| 2026-05-03 23:11 | 62.45352 | -114.44091 | 678 ft | 0 kts | 355° |
| 2026-05-03 23:11 | 62.45356 | -114.44092 | 685 ft | 1 kts | 355° |
| 2026-05-03 23:11 | 62.45453 | -114.44108 | 684 ft | 44 kts | 356° |
| 2026-05-03 23:12 | 62.46026 | -114.44196 | 686 ft | 116 kts | 356° |
| 2026-05-03 23:12 | 62.46935 | -114.44313 | 997 ft | 139 kts | 356° |
| 2026-05-03 23:12 | 62.47900 | -114.44451 | 1869 ft | 142 kts | 356° |
| 2026-05-03 23:12 | 62.48943 | -114.44568 | 2439 ft | 161 kts | 356° |
| 2026-05-03 23:13 | 62.50133 | -114.44744 | 2535 ft | 184 kts | 356° |
| 2026-05-03 23:13 | 62.51431 | -114.44953 | 2873 ft | 188 kts | 355° |
| 2026-05-03 23:13 | 62.52737 | -114.45173 | 3585 ft | 187 kts | 355° |
| 2026-05-03 23:13 | 62.54081 | -114.45400 | 4024 ft | 203 kts | 355° |
| 2026-05-03 23:14 | 62.55553 | -114.45640 | 4366 ft | 220 kts | 355° |
| 2026-05-03 23:14 | 62.57132 | -114.45890 | 4742 ft | 234 kts | 355° |
| 2026-05-03 23:14 | 62.58772 | -114.46138 | 5324 ft | 237 kts | 355° |
| 2026-05-03 23:14 | 62.60426 | -114.46377 | 5928 ft | 240 kts | 355° |
| 2026-05-03 23:15 | 62.62095 | -114.46532 | 6501 ft | 242 kts | 5° |
| 2026-05-03 23:15 | 62.63635 | -114.45067 | 7028 ft | 249 kts | 39° |
| 2026-05-03 23:15 | 62.64852 | -114.42417 | 7534 ft | 253 kts | 42° |
| 2026-05-03 23:15 | 62.66090 | -114.39686 | 8062 ft | 255 kts | 43° |
| 2026-05-03 23:16 | 62.67318 | -114.36871 | 8586 ft | 258 kts | 44° |
| 2026-05-03 23:16 | 62.68465 | -114.33820 | 9102 ft | 262 kts | 50° |
| 2026-05-03 23:16 | 62.69547 | -114.30604 | 9625 ft | 265 kts | 51° |
| 2026-05-03 23:16 | 62.70626 | -114.27327 | 10179 ft | 267 kts | 51° |
| 2026-05-03 23:17 | 62.71709 | -114.24005 | 10719 ft | 270 kts | 51° |
| 2026-05-03 23:17 | 62.72798 | -114.20651 | 11294 ft | 272 kts | 52° |
| 2026-05-03 23:17 | 62.73898 | -114.17259 | 11893 ft | 275 kts | 52° |
| 2026-05-03 23:17 | 62.75015 | -114.13823 | 12526 ft | 278 kts | 52° |
| 2026-05-03 23:18 | 62.76139 | -114.10378 | 13194 ft | 280 kts | 51° |
| 2026-05-03 23:18 | 62.77265 | -114.06941 | 13884 ft | 284 kts | 52° |
| 2026-05-03 23:18 | 62.78419 | -114.03410 | 14557 ft | 286 kts | 52° |
| 2026-05-03 23:18 | 62.79585 | -113.99854 | 15349 ft | 290 kts | 52° |
| 2026-05-03 23:19 | 62.80767 | -113.96249 | 16097 ft | 293 kts | 51° |
| 2026-05-03 23:19 | 62.81966 | -113.92613 | 16819 ft | 297 kts | 51° |
| 2026-05-03 23:19 | 62.83188 | -113.88940 | 17522 ft | 300 kts | 50° |
| 2026-05-03 23:19 | 62.84462 | -113.85275 | 18201 ft | 303 kts | 50° |
| 2026-05-03 23:20 | 62.85762 | -113.81613 | 18804 ft | 306 kts | 49° |
| 2026-05-03 23:20 | 62.87085 | -113.77942 | 19357 ft | 309 kts | 50° |
| 2026-05-03 23:20 | 62.88385 | -113.74167 | 19893 ft | 311 kts | 49° |
| 2026-05-03 23:20 | 62.89790 | -113.70535 | 20403 ft | 313 kts | 45° |
| 2026-05-03 23:21 | 62.91324 | -113.67141 | 20904 ft | 314 kts | 41° |
| 2026-05-03 23:21 | 62.92935 | -113.63954 | 21375 ft | 316 kts | 38° |
| 2026-05-03 23:21 | 62.94623 | -113.60835 | 21829 ft | 318 kts | 37° |
| 2026-05-03 23:21 | 62.96356 | -113.57775 | 22281 ft | 320 kts | 36° |
| 2026-05-03 23:22 | 62.99888 | -113.51660 | 23028 ft | 327 kts | 36° |
| 2026-05-03 23:22 | 63.01675 | -113.48525 | 23136 ft | 323 kts | 36° |
| 2026-05-03 23:22 | 63.03407 | -113.45460 | 23162 ft | 320 kts | 36° |
| 2026-05-03 23:23 | 63.05143 | -113.42378 | 23168 ft | 321 kts | 36° |
| 2026-05-03 23:23 | 63.06886 | -113.39279 | 23172 ft | 321 kts | 36° |
| 2026-05-03 23:23 | 63.08626 | -113.36182 | 23177 ft | 321 kts | 36° |
| 2026-05-03 23:23 | 63.10368 | -113.33079 | 23173 ft | 322 kts | 36° |
| 2026-05-03 23:24 | 63.12109 | -113.29980 | 23175 ft | 321 kts | 36° |
| 2026-05-03 23:24 | 63.13848 | -113.26995 | 23176 ft | 321 kts | 34° |
| 2026-05-03 23:24 | 63.15626 | -113.23999 | 23179 ft | 321 kts | 34° |
| 2026-05-03 23:24 | 63.17405 | -113.21024 | 23182 ft | 321 kts | 34° |
| 2026-05-03 23:25 | 63.19186 | -113.18053 | 23182 ft | 321 kts | 34° |
| 2026-05-03 23:25 | 63.20976 | -113.15074 | 23183 ft | 321 kts | 34° |
| 2026-05-03 23:25 | 63.22763 | -113.12101 | 23182 ft | 321 kts | 34° |
| 2026-05-03 23:25 | 63.24543 | -113.09106 | 23181 ft | 321 kts | 35° |
| 2026-05-03 23:26 | 63.26314 | -113.06074 | 23188 ft | 321 kts | 35° |
| 2026-05-03 23:26 | 63.28058 | -113.03079 | 23190 ft | 321 kts | 34° |
| 2026-05-03 23:26 | 63.29834 | -113.00071 | 23186 ft | 321 kts | 34° |
| 2026-05-03 23:26 | 63.31605 | -112.97037 | 23185 ft | 321 kts | 35° |
| 2026-05-03 23:27 | 63.33376 | -112.93987 | 23189 ft | 321 kts | 34° |
| 2026-05-03 23:27 | 63.35148 | -112.90981 | 23196 ft | 320 kts | 34° |
| 2026-05-03 23:27 | 63.36917 | -112.87950 | 23192 ft | 321 kts | 35° |
| 2026-05-03 23:27 | 63.38681 | -112.84901 | 23193 ft | 321 kts | 35° |
| 2026-05-03 23:28 | 63.40446 | -112.81841 | 23195 ft | 320 kts | 34° |
| 2026-05-03 23:28 | 63.42210 | -112.78820 | 23194 ft | 320 kts | 35° |
| 2026-05-03 23:28 | 63.43974 | -112.75766 | 23194 ft | 320 kts | 35° |
| 2026-05-03 23:28 | 63.45730 | -112.72724 | 23200 ft | 320 kts | 34° |
| 2026-05-03 23:29 | 63.47495 | -112.69677 | 23200 ft | 320 kts | 34° |
| 2026-05-03 23:29 | 63.49228 | -112.66660 | 23202 ft | 320 kts | 35° |
| 2026-05-03 23:29 | 63.51008 | -112.63564 | 23199 ft | 320 kts | 35° |
| 2026-05-03 23:29 | 63.52742 | -112.60540 | 23204 ft | 320 kts | 35° |
| 2026-05-03 23:30 | 63.54499 | -112.57473 | 23205 ft | 320 kts | 35° |
| 2026-05-03 23:30 | 63.56252 | -112.54406 | 23210 ft | 319 kts | 34° |
| 2026-05-03 23:30 | 63.58003 | -112.51344 | 23205 ft | 319 kts | 35° |
| 2026-05-03 23:30 | 63.59757 | -112.48276 | 23203 ft | 319 kts | 35° |
| 2026-05-03 23:31 | 63.61507 | -112.45214 | 23204 ft | 319 kts | 34° |
| 2026-05-03 23:31 | 63.63264 | -112.42141 | 23207 ft | 319 kts | 35° |
| 2026-05-03 23:31 | 63.64997 | -112.39108 | 23206 ft | 319 kts | 35° |
| 2026-05-03 23:31 | 63.66745 | -112.36051 | 23209 ft | 319 kts | 34° |
| 2026-05-03 23:32 | 63.68500 | -112.32980 | 23211 ft | 318 kts | 34° |
| 2026-05-03 23:32 | 63.70249 | -112.29920 | 23209 ft | 318 kts | 34° |
| 2026-05-03 23:32 | 63.71998 | -112.26857 | 23211 ft | 318 kts | 34° |
| 2026-05-03 23:32 | 63.73736 | -112.23772 | 23210 ft | 318 kts | 35° |
| 2026-05-03 23:33 | 63.75468 | -112.20660 | 23213 ft | 318 kts | 35° |
| 2026-05-03 23:33 | 63.77207 | -112.17577 | 23215 ft | 318 kts | 35° |
| 2026-05-03 23:33 | 63.78947 | -112.14468 | 23172 ft | 319 kts | 35° |
| 2026-05-03 23:33 | 63.80688 | -112.11331 | 22698 ft | 319 kts | 35° |
| 2026-05-03 23:34 | 63.82422 | -112.08229 | 22227 ft | 315 kts | 35° |
| 2026-05-03 23:34 | 63.84106 | -112.05202 | 21779 ft | 313 kts | 36° |
| 2026-05-03 23:34 | 63.85806 | -112.02135 | 21329 ft | 310 kts | 36° |
| 2026-05-03 23:34 | 63.87487 | -111.99104 | 20887 ft | 308 kts | 36° |
| 2026-05-03 23:35 | 63.89157 | -111.96095 | 20462 ft | 305 kts | 36° |
| 2026-05-03 23:35 | 63.90816 | -111.93110 | 20059 ft | 303 kts | 36° |
| 2026-05-03 23:35 | 63.92467 | -111.90146 | 19662 ft | 301 kts | 36° |
| 2026-05-03 23:35 | 63.94107 | -111.87206 | 19269 ft | 299 kts | 36° |
| 2026-05-03 23:36 | 63.95743 | -111.84280 | 18881 ft | 297 kts | 35° |
| 2026-05-03 23:36 | 63.97359 | -111.81381 | 18492 ft | 295 kts | 36° |
| 2026-05-03 23:36 | 63.98958 | -111.78460 | 18079 ft | 293 kts | 36° |
| 2026-05-03 23:36 | 64.00540 | -111.75551 | 17672 ft | 291 kts | 36° |
| 2026-05-03 23:37 | 64.02112 | -111.72661 | 17261 ft | 290 kts | 36° |
| 2026-05-03 23:37 | 64.03669 | -111.69826 | 16842 ft | 288 kts | 36° |
| 2026-05-03 23:37 | 64.05226 | -111.66968 | 16465 ft | 286 kts | 36° |
| 2026-05-03 23:37 | 64.06773 | -111.64119 | 16076 ft | 285 kts | 36° |
| 2026-05-03 23:38 | 64.08312 | -111.61283 | 15692 ft | 283 kts | 36° |
| 2026-05-03 23:38 | 64.09843 | -111.58464 | 15308 ft | 281 kts | 36° |
| 2026-05-03 23:38 | 64.11366 | -111.55665 | 14933 ft | 280 kts | 36° |
| 2026-05-03 23:38 | 64.12883 | -111.52882 | 14565 ft | 279 kts | 36° |
| 2026-05-03 23:39 | 64.14394 | -111.50118 | 14198 ft | 277 kts | 36° |
| 2026-05-03 23:39 | 64.15902 | -111.47364 | 13802 ft | 276 kts | 36° |
| 2026-05-03 23:39 | 64.17400 | -111.44632 | 13397 ft | 275 kts | 36° |
| 2026-05-03 23:39 | 64.18887 | -111.41898 | 12995 ft | 273 kts | 37° |
| 2026-05-03 23:40 | 64.20358 | -111.39152 | 12588 ft | 272 kts | 37° |
| 2026-05-03 23:40 | 64.21825 | -111.36409 | 12207 ft | 271 kts | 37° |
| 2026-05-03 23:40 | 64.23261 | -111.33718 | 11847 ft | 269 kts | 37° |
| 2026-05-03 23:40 | 64.24711 | -111.31013 | 11485 ft | 268 kts | 37° |
| 2026-05-03 23:41 | 64.26156 | -111.28315 | 11130 ft | 267 kts | 37° |
| 2026-05-03 23:41 | 64.27596 | -111.25644 | 10796 ft | 266 kts | 37° |
| 2026-05-03 23:41 | 64.29041 | -111.22963 | 10423 ft | 266 kts | 37° |
| 2026-05-03 23:41 | 64.30482 | -111.20304 | 10079 ft | 266 kts | 37° |
| 2026-05-03 23:42 | 64.31916 | -111.17620 | 9707 ft | 265 kts | 38° |
| 2026-05-03 23:42 | 64.33344 | -111.14935 | 9307 ft | 264 kts | 38° |
| 2026-05-03 23:42 | 64.34764 | -111.12260 | 8931 ft | 262 kts | 38° |
| 2026-05-03 23:42 | 64.36182 | -111.09605 | 8559 ft | 261 kts | 38° |
| 2026-05-03 23:43 | 64.37587 | -111.06973 | 8185 ft | 259 kts | 38° |
| 2026-05-03 23:43 | 64.38976 | -111.04340 | 7824 ft | 257 kts | 39° |
| 2026-05-03 23:43 | 64.39889 | -111.02610 | 7596 ft | 253 kts | 39° |
| 2026-05-03 23:43 | 64.41645 | -110.99280 | 7169 ft | 238 kts | 39° |
| 2026-05-03 23:44 | 64.42891 | -110.96883 | 6853 ft | 228 kts | 39° |
| 2026-05-03 23:44 | 64.43685 | -110.95354 | 6645 ft | 219 kts | 40° |
| 2026-05-03 23:44 | 64.44819 | -110.93180 | 6329 ft | 205 kts | 40° |
| 2026-05-03 23:44 | 64.45895 | -110.91139 | 6004 ft | 196 kts | 40° |
| 2026-05-03 23:45 | 64.46935 | -110.89181 | 5686 ft | 188 kts | 40° |
| 2026-05-03 23:45 | 64.47935 | -110.87300 | 5426 ft | 181 kts | 41° |
| 2026-05-03 23:45 | 64.48895 | -110.85474 | 5235 ft | 178 kts | 41° |
| 2026-05-03 23:45 | 64.49857 | -110.83639 | 5011 ft | 180 kts | 41° |
| 2026-05-03 23:46 | 64.50812 | -110.81823 | 4763 ft | 178 kts | 42° |
| 2026-05-03 23:46 | 64.51762 | -110.79986 | 4495 ft | 177 kts | 42° |
| 2026-05-03 23:46 | 64.52797 | -110.78411 | 4230 ft | 178 kts | 30° |
| 2026-05-03 23:46 | 64.53917 | -110.77173 | 3971 ft | 179 kts | 27° |
| 2026-05-03 23:47 | 64.55060 | -110.76047 | 3723 ft | 176 kts | 25° |
| 2026-05-03 23:47 | 64.56142 | -110.75044 | 3471 ft | 158 kts | 25° |
| 2026-05-03 23:47 | 64.57108 | -110.74167 | 3352 ft | 140 kts | 26° |
| 2026-05-03 23:47 | 64.57939 | -110.73397 | 3301 ft | 118 kts | 27° |
| 2026-05-03 23:48 | 64.58681 | -110.72685 | 3283 ft | 114 kts | 28° |
| 2026-05-03 23:48 | 64.59414 | -110.71947 | 3296 ft | 115 kts | 29° |
| 2026-05-03 23:48 | 64.60131 | -110.71215 | 3305 ft | 114 kts | 28° |
| 2026-05-03 23:48 | 64.60859 | -110.70473 | 3313 ft | 115 kts | 28° |
| 2026-05-03 23:49 | 64.61594 | -110.69731 | 3322 ft | 115 kts | 28° |
| 2026-05-03 23:49 | 64.62348 | -110.68985 | 3203 ft | 120 kts | 27° |
| 2026-05-03 23:49 | 64.63115 | -110.68260 | 3107 ft | 117 kts | 26° |
| 2026-05-03 23:49 | 64.63874 | -110.67564 | 2976 ft | 118 kts | 26° |
| 2026-05-03 23:50 | 64.64642 | -110.66834 | 2781 ft | 120 kts | 27° |
| 2026-05-03 23:50 | 64.65402 | -110.66101 | 2548 ft | 119 kts | 28° |
| 2026-05-03 23:50 | 64.66157 | -110.65306 | 2307 ft | 117 kts | 29° |
| 2026-05-03 23:50 | 64.66895 | -110.64538 | 2128 ft | 117 kts | 28° |
| 2026-05-03 23:51 | 64.67638 | -110.63794 | 1927 ft | 113 kts | 28° |
| 2026-05-03 23:51 | 64.68348 | -110.63047 | 1712 ft | 111 kts | 30° |
| 2026-05-03 23:51 | 64.69057 | -110.62300 | 1534 ft | 109 kts | 27° |
| 2026-05-03 23:51 | 64.69684 | -110.61680 | 1515 ft | 83 kts | 23° |
| 2026-05-03 23:52 | 64.70102 | -110.61263 | 1515 ft | 48 kts | 24° |
| 2026-05-03 23:52 | 64.70362 | -110.61003 | 1515 ft | 32 kts | 22° |
| 2026-05-03 23:52 | 64.70541 | -110.60829 | 1513 ft | 15 kts | 21° |
| 2026-05-03 23:52 | 64.70607 | -110.60945 | 1514 ft | 12 kts | 288° |
| 2026-05-03 23:53 | 64.70630 | -110.61099 | 1515 ft | 8 kts | 294° |
| 2026-05-03 23:53 | 64.70654 | -110.61152 | 1512 ft | 3 kts | 349° |
| 2026-05-03 23:53 | 64.70672 | -110.61137 | 1512 ft | 3 kts | 30° |
| 2026-05-03 23:53 | 64.70680 | -110.61125 | 1515 ft | 0 kts | 30° |